Αρχική σελίδα
METAR-TAF:

METAR-TAF

Αεροδρόμια :

Lençóis, Μπάια, Βραζιλία

γεωγραφικό πλάτος: 12-29-00S, γεωγραφικό μήκος: 041-16-23W, υψόμετρο: 511 μ

Παρών καιρός

Η αναφορά έγινε 1 ώρα και 12 λεπτά πριν, στις 12:00 UTC
Άνεμος 4 kt από Α/NA, μεταβλητός μεταξύ Α/BA και ΝA
Θερμοκρασία 20°C
Υγρασία 88%
Πίεση 1022 hPa
Ορατότητα 10 χλμ και άνω
Δεν υπάρχουν νέφη με βάση κάτω από τα 1500 μ. και δεν υπάρχουν νέφη σωρειτομελανίτες.

METAR: SBLE 221200Z AUTO 11004KT 070V140 CAVOK 20/18 Q1022

Χρόνος: 10:12 (13:12 UTC)


TAF: λείπει

Μετεωρολογικές αναφορές και προγνώσεις για περισσότερα από 4000 αεροδρόμια (δελτία METAR και TAF).

Οι διαθέσιμοι σταθμοί απεικονίζονται στο χάρτη με κίτρινες και κόκκινες κουκκίδες.

Μετακινήστε το ποντίκι πάνω από τις κουκκίδες για να δείτε το όνομα του σταθμού.

Στη συνέχεια, κάντε κλικ για να δείτε τις μετεωρολογικές αναφορές και τις προγνώσεις καιρού.

Για να αλλάξετε το χάρτη: κάντε κλικ στα πράσινα κουμπιά με τον μαύρο σταυρό για να ζουμάρετε, στο πράσινο κουμπί με την παύλα για να αφαιρέσετε το ζουμ ή στα πράσινα βέλη για να αντιπαραβάλλετε χάρτες.


METAR-TAF: